PST,Max TemperatureF,Mean TemperatureF,Min TemperatureF,Max Dew PointF,MeanDew PointF,Min DewpointF,Max Humidity, Mean Humidity, Min Humidity, Max Sea Level PressureIn, Mean Sea Level PressureIn, Min Sea Level PressureIn, Max VisibilityMiles, Mean VisibilityMiles, Min VisibilityMiles, Max Wind SpeedMPH, Mean Wind SpeedMPH, Max Gust SpeedMPH,PrecipitationIn, CloudCover, Events, WindDirDegrees
1989-10-1,69,62,54,57,54,52,97,83,63,30.01,29.92,29.84,10,10,8,23,11,,0.00,2,,278
1989-10-2,61,58,54,53,51,50,87,79,72,29.96,29.87,29.82,10,8,7,17,11,,0.00,6,,253
1989-10-3,73,62,50,54,51,45,96,79,37,30.05,30.01,29.96,20,10,8,17,8,,0.00,0,,287
1989-10-4,71,58,46,56,50,46,100,82,52,30.07,30.01,29.94,15,8,3,21,10,,0.00,1,,315
1989-10-5,77,64,51,56,51,43,93,72,39,29.97,29.94,29.91,15,11,5,24,8,,0.00,1,,310
1989-10-6,69,60,51,56,52,48,100,81,54,30.15,30.07,29.98,10,8,2,24,11,,0.00,1,Fog,305
1989-10-7,72,62,51,57,52,48,100,83,53,30.18,30.13,30.06,15,6,2,18,10,,0.00,5,Fog,312
1989-10-8,84,68,51,59,53,48,96,70,31,30.12,30.07,30.00,15,10,4,18,7,,0.00,0,,321
1989-10-9,84,70,57,60,52,45,93,63,25,30.08,30.04,30.00,15,9,6,17,5,,0.00,0,,340
1989-10-10,69,60,52,56,53,51,100,85,54,30.08,30.03,29.98,10,7,1,25,11,,0.00,2,Fog,313
1989-10-11,66,60,53,55,53,51,100,86,65,30.08,30.03,29.98,10,8,4,20,9,,0.00,4,Fog,301
1989-10-12,64,57,50,52,51,49,100,85,58,30.09,30.05,30.01,10,7,3,21,10,,0.00,5,Fog,302
1989-10-13,63,58,54,53,51,50,90,80,65,30.12,30.07,30.01,15,11,10,21,12,,0.00,5,,288
1989-10-14,60,58,55,54,52,50,93,87,69,30.04,30.00,29.98,15,10,8,22,13,26,0.00,7,,278
1989-10-15,62,56,51,50,49,48,89,81,65,30.05,30.01,29.98,10,10,8,28,15,25,0.00,6,,289
1989-10-16,66,58,50,53,48,40,93,76,41,30.04,30.00,29.95,10,9,6,22,7,,0.00,4,,234
1989-10-17,82,66,51,56,48,40,89,62,26,30.04,30.00,29.97,10,8,4,15,6,,0.00,0,,307
1989-10-18,81,68,54,56,52,48,90,64,38,30.12,30.05,29.99,10,8,5,17,5,,0.00,0,,327
1989-10-19,78,66,55,57,53,48,89,68,37,30.00,29.96,29.89,10,7,4,15,4,,0.00,5,,332
1989-10-20,64,58,52,54,52,49,93,79,68,29.96,29.93,29.90,10,10,7,28,13,38,0.00,7,,214
1989-10-21,64,62,60,60,56,52,93,80,67,30.01,29.92,29.87,10,9,3,21,12,29,0.10,6,Fog-Rain,182
1989-10-22,69,64,59,57,54,53,90,72,59,30.05,30.01,29.95,15,10,10,28,13,29,0.00,7,,163
1989-10-23,64,60,57,58,55,51,93,81,63,30.07,29.97,29.86,15,8,1,41,20,58,1.16,7,Fog-Rain,191
1989-10-24,64,60,54,56,53,47,93,80,58,30.10,30.05,30.01,15,13,3,15,10,24,0.08,5,Rain,219
1989-10-25,60,55,50,52,48,44,96,77,55,30.19,30.10,30.02,15,15,15,23,10,,0.00,2,,288
1989-10-26,64,57,50,51,49,47,93,79,56,30.26,30.21,30.18,20,14,10,13,6,,0.00,3,,185
1989-10-27,62,58,53,55,50,48,93,78,60,30.22,30.18,30.12,15,12,5,22,10,,0.06,5,Fog-Rain,249
1989-10-28,66,58,51,48,41,34,89,57,30,30.21,30.16,30.09,20,16,15,25,8,,0.00,0,,355
1989-10-29,66,59,52,50,37,31,72,44,33,30.20,30.15,30.11,20,16,15,21,12,33,0.00,3,,91
1989-10-30,70,59,48,47,41,34,90,59,28,30.22,30.16,30.10,20,16,15,7,4,,0.00,4,,174
1989-10-31,69,58,48,51,44,33,90,65,26,30.12,30.08,30.03,20,13,8,14,5,,0.00,2,,271